createdAt,value
2019-03-18T00:01:41.225Z,5.81
2019-03-18T00:04:10.484Z,5.75
2019-03-18T00:06:39.741Z,5.75
2019-03-18T00:09:08.885Z,5.73
2019-03-18T00:11:38.345Z,5.77
2019-03-18T00:14:07.396Z,5.71
2019-03-18T00:16:36.692Z,5.75
2019-03-18T00:19:05.743Z,5.81
2019-03-18T00:21:35.008Z,5.66
2019-03-18T00:24:04.239Z,5.59
2019-03-18T00:26:33.400Z,5.54
2019-03-18T00:29:04.677Z,5.53
2019-03-18T00:31:33.756Z,5.49
2019-03-18T00:34:02.949Z,5.45
2019-03-18T00:36:32.335Z,5.54
2019-03-18T00:39:01.422Z,5.61
2019-03-18T00:41:30.821Z,5.57
2019-03-18T00:44:00.190Z,5.62
2019-03-18T00:46:29.223Z,5.63
2019-03-18T00:48:58.420Z,5.63
2019-03-18T00:51:27.722Z,5.63
2019-03-18T00:53:56.976Z,5.73
2019-03-18T00:56:27.953Z,5.67
2019-03-18T00:58:57.544Z,5.65
2019-03-18T01:01:26.588Z,5.62
2019-03-18T01:03:55.773Z,5.74
2019-03-18T01:06:25.019Z,5.65
2019-03-18T01:08:54.255Z,5.71
2019-03-18T01:11:23.278Z,5.68
2019-03-18T01:13:52.729Z,5.71
2019-03-18T01:16:21.794Z,5.73
2019-03-18T01:18:51.159Z,5.72
2019-03-18T01:21:20.193Z,5.67
2019-03-18T01:23:49.432Z,5.68
2019-03-18T01:26:18.713Z,5.69
2019-03-18T01:28:47.925Z,5.72
2019-03-18T01:31:17.188Z,5.67
2019-03-18T01:33:46.256Z,5.64
2019-03-18T01:36:15.477Z,5.69
2019-03-18T01:38:46.490Z,5.67
2019-03-18T01:41:15.494Z,5.63
2019-03-18T01:43:44.533Z,5.67
2019-03-18T01:46:13.526Z,5.73
2019-03-18T01:48:43.031Z,5.86
2019-03-18T01:51:12.079Z,5.91
2019-03-18T01:53:41.122Z,5.90
2019-03-18T01:56:10.301Z,5.94
2019-03-18T01:58:39.517Z,5.96
2019-03-18T02:01:08.715Z,5.93
2019-03-18T02:03:37.904Z,5.84
2019-03-18T02:06:07.295Z,5.92
2019-03-18T02:08:36.424Z,5.93
2019-03-18T02:11:05.759Z,5.79
2019-03-18T02:13:34.874Z,5.82
2019-03-18T02:16:04.186Z,5.79
2019-03-18T02:18:33.338Z,5.78
2019-03-18T02:21:02.396Z,5.65
2019-03-18T02:23:31.667Z,5.56
2019-03-18T02:26:01.069Z,5.66
2019-03-18T02:28:30.136Z,5.60
2019-03-18T02:30:59.462Z,5.60
2019-03-18T02:33:28.595Z,5.61
2019-03-18T02:35:57.899Z,5.61
2019-03-18T02:38:27.104Z,5.60
2019-03-18T02:40:56.299Z,5.60
2019-03-18T02:43:25.594Z,5.63
2019-03-18T02:46:09.387Z,5.65
2019-03-18T02:48:25.536Z,5.63
2019-03-18T02:50:54.775Z,5.67
2019-03-18T02:53:23.850Z,5.65
2019-03-18T02:55:52.930Z,5.77
2019-03-18T02:58:21.930Z,5.67
2019-03-18T03:00:51.156Z,5.73
2019-03-18T03:03:20.216Z,5.67
2019-03-18T03:05:49.565Z,5.65
2019-03-18T03:08:18.648Z,5.74
2019-03-18T03:10:47.880Z,5.70
2019-03-18T03:13:17.237Z,5.74
2019-03-18T03:15:46.524Z,5.72
2019-03-18T03:18:15.647Z,5.73
2019-03-18T03:20:45.141Z,5.69
2019-03-18T03:23:14.196Z,5.79
2019-03-18T03:25:43.297Z,5.77
2019-03-18T03:28:12.521Z,5.77
2019-03-18T03:30:41.716Z,5.78
2019-03-18T03:33:10.933Z,5.86
2019-03-18T03:35:40.111Z,5.72
2019-03-18T03:38:09.417Z,5.67
2019-03-18T03:40:38.699Z,5.64
2019-03-18T03:43:07.883Z,5.55
2019-03-18T03:45:37.104Z,5.52
2019-03-18T03:48:06.309Z,5.53
2019-03-18T03:50:35.592Z,5.51
2019-03-18T03:53:05.110Z,5.50
2019-03-18T03:55:34.107Z,5.44
2019-03-18T03:58:03.158Z,5.39
2019-03-18T04:00:32.386Z,5.40
2019-03-18T04:03:01.781Z,5.44
2019-03-18T04:05:30.837Z,5.39
2019-03-18T04:08:00.137Z,5.30
2019-03-18T04:10:29.322Z,5.32
2019-03-18T04:12:58.424Z,5.32
2019-03-18T04:15:27.711Z,5.28
2019-03-18T04:17:56.901Z,5.21
2019-03-18T04:20:26.096Z,5.30
2019-03-18T04:22:55.411Z,5.23
2019-03-18T04:25:24.601Z,5.31
2019-03-18T04:27:53.792Z,5.32
2019-03-18T04:30:23.030Z,5.32
2019-03-18T04:32:52.267Z,5.27
2019-03-18T04:35:21.537Z,5.24
2019-03-18T04:37:50.661Z,5.23
2019-03-18T04:40:19.757Z,5.23
2019-03-18T04:42:49.504Z,5.25
2019-03-18T04:45:18.530Z,5.19
2019-03-18T04:47:47.563Z,5.22
2019-03-18T04:50:16.760Z,5.21
2019-03-18T04:52:45.973Z,5.08
2019-03-18T04:55:15.289Z,5.12
2019-03-18T04:57:44.455Z,5.13
2019-03-18T05:00:13.815Z,5.10
2019-03-18T05:02:42.831Z,5.11
2019-03-18T05:05:12.156Z,5.11
2019-03-18T05:07:41.397Z,5.08
2019-03-18T05:10:10.570Z,5.07
2019-03-18T05:12:39.864Z,5.07
2019-03-18T05:15:08.968Z,5.12
2019-03-18T05:17:38.302Z,5.07
2019-03-18T05:20:07.665Z,5.07
2019-03-18T05:22:36.743Z,5.11
2019-03-18T05:25:05.969Z,4.91
2019-03-18T05:27:35.070Z,5.07
2019-03-18T05:30:04.381Z,5.07
2019-03-18T05:32:33.582Z,5.12
2019-03-18T05:35:02.757Z,5.13
2019-03-18T05:37:32.112Z,5.20
2019-03-18T05:40:01.138Z,5.08
2019-03-18T05:42:30.426Z,5.09
2019-03-18T05:45:00.034Z,5.08
2019-03-18T05:47:38.587Z,5.06
2019-03-18T05:50:00.098Z,5.11
2019-03-18T05:52:29.211Z,5.14
2019-03-18T05:54:58.635Z,5.15
2019-03-18T05:57:27.800Z,5.18
2019-03-18T05:59:57.034Z,5.15
2019-03-18T06:02:26.369Z,5.16
2019-03-18T06:04:55.420Z,5.15
2019-03-18T06:07:24.667Z,5.28
2019-03-18T06:09:53.851Z,5.28
2019-03-18T06:12:23.102Z,5.29
2019-03-18T06:14:52.398Z,5.32
2019-03-18T06:17:21.416Z,5.41
2019-03-18T06:19:50.857Z,5.41
2019-03-18T06:22:20.007Z,5.34
2019-03-18T06:24:49.122Z,5.35
2019-03-18T06:27:18.420Z,5.42
2019-03-18T06:29:47.654Z,5.42
2019-03-18T06:32:16.861Z,5.42
2019-03-18T06:34:46.116Z,5.49
2019-03-18T06:37:15.297Z,5.52
2019-03-18T06:39:44.388Z,5.58
2019-03-18T06:42:13.796Z,5.72
2019-03-18T06:44:43.002Z,5.67
2019-03-18T06:47:12.287Z,5.69
2019-03-18T06:49:41.352Z,5.71
2019-03-18T06:52:10.617Z,5.63
2019-03-18T06:54:39.835Z,5.63
2019-03-18T06:57:09.083Z,5.66
2019-03-18T06:59:39.195Z,5.75
2019-03-18T07:02:08.503Z,5.74
2019-03-18T07:04:37.866Z,5.79
2019-03-18T07:07:06.896Z,5.73
2019-03-18T07:09:36.162Z,5.73
2019-03-18T07:12:05.388Z,5.83
2019-03-18T07:14:34.807Z,5.86
2019-03-18T07:17:03.837Z,5.83
2019-03-18T07:19:33.153Z,5.88
2019-03-18T07:22:02.246Z,5.91
2019-03-18T07:24:31.490Z,5.79
2019-03-18T07:27:00.726Z,5.75
2019-03-18T07:29:29.944Z,5.80
2019-03-18T07:31:59.236Z,5.84
2019-03-18T07:34:28.415Z,5.89
2019-03-18T07:36:57.706Z,5.89
2019-03-18T07:39:26.740Z,5.86
2019-03-18T07:41:56.125Z,5.95
2019-03-18T07:44:25.201Z,5.89
2019-03-18T07:46:54.459Z,6.00
2019-03-18T07:49:23.668Z,6.05
2019-03-18T07:51:52.843Z,6.07
2019-03-18T07:54:32.246Z,6.02
2019-03-18T07:56:52.889Z,6.11
2019-03-18T07:59:21.890Z,6.27
2019-03-18T08:01:50.895Z,6.34
2019-03-18T08:04:19.994Z,6.43
2019-03-18T08:06:49.239Z,6.49
2019-03-18T08:09:18.501Z,6.66
2019-03-18T08:11:47.587Z,6.84
2019-03-18T08:14:16.938Z,7.05
2019-03-18T08:16:46.128Z,7.03
2019-03-18T08:19:15.368Z,7.03
2019-03-18T08:21:44.656Z,7.02
2019-03-18T08:24:13.998Z,7.08
2019-03-18T08:26:43.028Z,7.47
2019-03-18T08:29:12.324Z,8.00
2019-03-18T08:31:41.365Z,8.63
2019-03-18T08:34:10.687Z,9.10
2019-03-18T08:36:39.899Z,9.44
2019-03-18T08:39:09.124Z,9.77
2019-03-18T08:41:38.353Z,9.71
2019-03-18T08:44:08.321Z,9.63
2019-03-18T08:46:37.668Z,9.64
2019-03-18T08:49:07.046Z,9.45
2019-03-18T08:51:36.232Z,9.43
2019-03-18T08:54:05.353Z,9.23
2019-03-18T08:56:34.757Z,9.44
2019-03-18T08:59:03.841Z,9.57
2019-03-18T09:01:33.060Z,9.70
2019-03-18T09:04:02.349Z,9.76
2019-03-18T09:06:31.472Z,9.45
2019-03-18T09:09:00.895Z,9.89
2019-03-18T09:11:30.008Z,10.20
2019-03-18T09:13:59.205Z,10.31
2019-03-18T09:16:28.532Z,10.59
2019-03-18T09:19:07.995Z,10.43
2019-03-18T09:21:28.974Z,10.73
2019-03-18T09:23:58.031Z,10.62
2019-03-18T09:26:27.289Z,10.23
2019-03-18T09:28:56.422Z,9.87
2019-03-18T09:31:25.754Z,9.56
2019-03-18T09:33:54.947Z,9.60
2019-03-18T09:36:24.202Z,9.79
2019-03-18T09:38:53.572Z,9.79
2019-03-18T09:41:22.648Z,9.93
2019-03-18T09:43:51.706Z,10.00
2019-03-18T09:46:21.397Z,9.95
2019-03-18T09:48:50.458Z,9.87
2019-03-18T09:51:19.533Z,9.67
2019-03-18T09:53:48.722Z,9.58
2019-03-18T09:56:17.929Z,10.02
2019-03-18T09:58:47.175Z,9.99
2019-03-18T10:01:16.385Z,9.92
2019-03-18T10:03:45.480Z,9.80
2019-03-18T10:06:14.838Z,10.08
2019-03-18T10:08:44.037Z,10.33
2019-03-18T10:11:15.340Z,10.48
2019-03-18T10:13:44.357Z,10.53
2019-03-18T10:16:13.569Z,10.72
2019-03-18T10:18:42.986Z,10.68
2019-03-18T10:21:12.104Z,10.47
2019-03-18T10:23:41.402Z,10.41
2019-03-18T10:26:10.571Z,10.14
2019-03-18T10:28:39.807Z,10.09
2019-03-18T10:31:09.136Z,10.13
2019-03-18T10:33:38.197Z,10.15
2019-03-18T10:36:07.413Z,10.24
2019-03-18T10:38:36.614Z,10.49
2019-03-18T10:41:06.646Z,10.67
2019-03-18T10:43:35.962Z,10.81
2019-03-18T10:46:05.434Z,10.74
2019-03-18T10:48:34.563Z,10.64
2019-03-18T10:51:03.821Z,10.82
2019-03-18T10:53:33.124Z,10.88
2019-03-18T10:56:07.734Z,10.86
2019-03-18T10:58:32.928Z,10.79
2019-03-18T11:01:01.981Z,11.09
2019-03-18T11:03:32.072Z,10.93
2019-03-18T11:06:01.543Z,10.78
2019-03-18T11:08:30.923Z,10.94
2019-03-18T11:11:00.408Z,11.22
2019-03-18T11:13:29.683Z,11.04
2019-03-18T11:15:58.993Z,10.98
2019-03-18T11:18:28.178Z,10.94
2019-03-18T11:20:58.199Z,11.04
2019-03-18T11:23:27.697Z,11.08
2019-03-18T11:25:56.731Z,11.09
2019-03-18T11:28:25.965Z,10.99
2019-03-18T11:30:55.337Z,11.07
2019-03-18T11:33:24.406Z,11.01
2019-03-18T11:35:55.760Z,11.19
2019-03-18T11:38:25.829Z,11.14
2019-03-18T11:40:55.046Z,11.40
2019-03-18T11:43:24.110Z,11.40
2019-03-18T11:45:53.536Z,11.44
2019-03-18T11:48:22.561Z,11.54
2019-03-18T11:50:51.960Z,11.64
2019-03-18T11:53:21.388Z,11.49
2019-03-18T11:55:50.425Z,11.31
2019-03-18T11:58:19.573Z,11.53
2019-03-18T12:00:48.773Z,11.45
2019-03-18T12:03:17.936Z,11.35
2019-03-18T12:05:47.319Z,11.04
2019-03-18T12:08:16.406Z,10.74
2019-03-18T12:10:45.782Z,10.45
2019-03-18T12:13:14.816Z,10.44
2019-03-18T12:15:44.070Z,10.39
2019-03-18T12:18:13.460Z,10.38
2019-03-18T12:20:42.779Z,10.30
2019-03-18T12:23:11.840Z,10.13
2019-03-18T12:25:40.911Z,10.21
2019-03-18T12:28:10.267Z,10.24
2019-03-18T12:30:39.461Z,10.19
2019-03-18T12:33:08.649Z,10.13
2019-03-18T12:35:37.910Z,10.10
2019-03-18T12:38:07.132Z,9.99
2019-03-18T12:40:36.346Z,9.78
2019-03-18T12:43:05.640Z,9.87
2019-03-18T12:45:34.671Z,9.91
2019-03-18T12:48:04.120Z,10.36
2019-03-18T12:50:49.365Z,10.54
2019-03-18T12:53:04.360Z,10.48
2019-03-18T12:55:33.582Z,10.43
2019-03-18T12:58:02.787Z,10.32
2019-03-18T13:00:32.309Z,9.91
2019-03-18T13:03:01.338Z,9.55
2019-03-18T13:05:30.385Z,8.92
2019-03-18T13:07:59.824Z,8.55
2019-03-18T13:10:28.876Z,8.47
2019-03-18T13:12:58.471Z,8.53
2019-03-18T13:15:27.538Z,8.82
2019-03-18T13:17:56.781Z,9.20
2019-03-18T13:20:26.233Z,9.61
2019-03-18T13:22:55.300Z,9.85
2019-03-18T13:25:26.259Z,9.74
2019-03-18T13:27:55.478Z,9.62
2019-03-18T13:30:24.701Z,9.65
2019-03-18T13:32:53.961Z,9.55
2019-03-18T13:35:23.113Z,9.40
2019-03-18T13:37:52.404Z,9.16
2019-03-18T13:40:21.622Z,8.96
2019-03-18T13:42:50.890Z,8.90
2019-03-18T13:45:19.993Z,9.00
2019-03-18T13:47:49.269Z,9.02
2019-03-18T13:50:18.387Z,9.00
2019-03-18T13:52:47.652Z,8.94
2019-03-18T13:55:16.865Z,8.84
2019-03-18T13:57:46.288Z,8.45
2019-03-18T14:00:15.724Z,8.15
2019-03-18T14:02:44.914Z,8.06
2019-03-18T14:05:14.092Z,8.01
2019-03-18T14:07:43.257Z,7.94
2019-03-18T14:10:13.475Z,7.82
2019-03-18T14:12:42.636Z,7.80
2019-03-18T14:15:13.802Z,7.86
2019-03-18T14:17:42.819Z,7.87
2019-03-18T14:20:13.994Z,7.82
2019-03-18T14:22:43.126Z,7.94
2019-03-18T14:25:12.674Z,7.89
2019-03-18T14:27:41.694Z,7.82
2019-03-18T14:30:13.757Z,7.83
2019-03-18T14:32:43.006Z,7.87
2019-03-18T14:35:12.705Z,7.87
2019-03-18T14:37:42.003Z,7.88
2019-03-18T14:40:12.542Z,7.97
2019-03-18T14:42:41.811Z,8.22
2019-03-18T14:45:13.596Z,8.45
2019-03-18T14:47:42.641Z,8.67
2019-03-18T14:50:12.054Z,8.87
2019-03-18T14:52:41.118Z,9.21
2019-03-18T14:55:10.973Z,9.50
2019-03-18T14:57:40.215Z,9.62
2019-03-18T15:00:19.117Z,9.59
2019-03-18T15:02:48.365Z,9.75
2019-03-18T15:05:17.869Z,9.69
2019-03-18T15:07:46.972Z,9.56
2019-03-18T15:10:16.779Z,9.52
2019-03-18T15:12:46.341Z,9.56
2019-03-18T15:15:15.799Z,9.74
2019-03-18T15:17:45.468Z,9.82
2019-03-18T15:20:14.881Z,9.78
2019-03-18T15:22:44.144Z,9.83
2019-03-18T15:25:24.839Z,9.88
2019-03-18T15:27:55.743Z,9.87
2019-03-18T15:30:24.829Z,9.84
2019-03-18T15:32:54.091Z,9.76
2019-03-18T15:35:23.121Z,9.87
2019-03-18T15:37:52.318Z,9.71
2019-03-18T15:40:21.494Z,9.63
2019-03-18T15:42:50.549Z,9.55
2019-03-18T15:45:19.809Z,9.47
2019-03-18T15:47:49.083Z,9.38
2019-03-18T15:50:19.660Z,9.35
2019-03-18T15:52:48.785Z,9.28
2019-03-18T15:55:18.018Z,9.24
2019-03-18T15:57:47.745Z,9.10
2019-03-18T16:00:18.034Z,8.98
2019-03-18T16:02:48.892Z,8.82
2019-03-18T16:05:18.001Z,8.84
2019-03-18T16:07:47.505Z,8.73
2019-03-18T16:10:17.219Z,8.55
2019-03-18T16:12:47.142Z,8.41
2019-03-18T16:15:17.252Z,8.42
2019-03-18T16:17:46.861Z,8.50
2019-03-18T16:20:16.675Z,8.60
2019-03-18T16:22:47.231Z,8.72
2019-03-18T16:25:17.335Z,8.87
2019-03-18T16:27:46.991Z,8.96
2019-03-18T16:30:16.423Z,8.98
2019-03-18T16:32:45.589Z,8.98
2019-03-18T16:35:16.146Z,9.05
2019-03-18T16:37:45.448Z,9.05
2019-03-18T16:40:14.654Z,9.09
2019-03-18T16:42:44.465Z,9.16
2019-03-18T16:45:14.319Z,9.13
2019-03-18T16:47:43.496Z,9.11
2019-03-18T16:50:14.161Z,9.09
2019-03-18T16:52:43.257Z,8.98
2019-03-18T16:55:12.942Z,8.95
2019-03-18T16:57:42.330Z,8.86
2019-03-18T17:00:16.953Z,8.83
2019-03-18T17:02:46.493Z,8.78
2019-03-18T17:05:18.463Z,8.69
2019-03-18T17:07:50.144Z,8.62
2019-03-18T17:10:19.564Z,8.62
2019-03-18T17:12:49.276Z,8.61
2019-03-18T17:15:19.898Z,8.56
2019-03-18T17:17:49.379Z,8.53
2019-03-18T17:20:18.575Z,8.47
2019-03-18T17:22:49.900Z,8.46
2019-03-18T17:25:19.235Z,8.40
2019-03-18T17:27:48.356Z,8.39
2019-03-18T17:30:18.390Z,8.38
2019-03-18T17:32:47.673Z,8.32
2019-03-18T17:35:16.857Z,8.29
2019-03-18T17:37:46.359Z,8.25
2019-03-18T17:40:15.493Z,8.30
2019-03-18T17:42:44.780Z,8.17
2019-03-18T17:45:14.418Z,8.09
2019-03-18T17:47:43.849Z,8.10
2019-03-18T17:50:15.376Z,8.13
2019-03-18T17:52:44.504Z,8.28
2019-03-18T17:55:13.668Z,8.34
2019-03-18T17:57:42.778Z,8.30
2019-03-18T18:00:16.877Z,8.27
2019-03-18T18:02:46.095Z,8.20
2019-03-18T18:05:15.433Z,8.16
2019-03-18T18:07:44.477Z,8.29
2019-03-18T18:10:13.828Z,8.20
2019-03-18T18:12:43.559Z,8.05
2019-03-18T18:15:13.117Z,8.00
2019-03-18T18:17:42.213Z,7.98
2019-03-18T18:20:11.456Z,7.85
2019-03-18T18:22:41.153Z,7.87
2019-03-18T18:25:10.681Z,7.66
2019-03-18T18:27:41.313Z,7.57
2019-03-18T18:30:10.480Z,7.60
2019-03-18T18:32:39.639Z,7.59
2019-03-18T18:35:11.676Z,7.57
2019-03-18T18:37:40.826Z,7.52
2019-03-18T18:40:11.248Z,7.51
2019-03-18T18:42:40.370Z,7.46
2019-03-18T18:45:10.937Z,7.42
2019-03-18T18:47:40.115Z,7.41
2019-03-18T18:50:10.002Z,7.38
2019-03-18T18:52:39.341Z,7.29
2019-03-18T18:55:08.676Z,7.19
2019-03-18T18:57:38.016Z,7.12
2019-03-18T19:00:08.913Z,7.06
2019-03-18T19:02:38.145Z,7.05
2019-03-18T19:05:08.698Z,6.98
2019-03-18T19:07:37.944Z,6.92
2019-03-18T19:10:08.088Z,6.81
2019-03-18T19:12:37.147Z,6.78
2019-03-18T19:15:08.936Z,6.67
2019-03-18T19:17:38.363Z,6.79
2019-03-18T19:20:08.903Z,6.74
2019-03-18T19:22:38.377Z,6.65
2019-03-18T19:25:09.776Z,6.67
2019-03-18T19:27:39.251Z,6.57
2019-03-18T19:30:11.418Z,6.49
2019-03-18T19:32:40.537Z,6.40
2019-03-18T19:35:10.653Z,6.55
2019-03-18T19:37:39.988Z,6.39
2019-03-18T19:40:11.584Z,6.35
2019-03-18T19:42:41.118Z,6.26
2019-03-18T19:45:11.937Z,6.21
2019-03-18T19:47:41.111Z,6.12
2019-03-18T19:50:12.934Z,6.09
2019-03-18T19:52:42.059Z,6.04
2019-03-18T19:55:11.474Z,6.00
2019-03-18T19:57:40.589Z,5.94
2019-03-18T20:00:13.134Z,5.90
2019-03-18T20:02:42.659Z,5.86
2019-03-18T20:05:15.761Z,5.78
2019-03-18T20:07:43.101Z,5.72
2019-03-18T20:10:12.818Z,5.68
2019-03-18T20:12:41.915Z,5.68
2019-03-18T20:15:12.678Z,5.63
2019-03-18T20:17:42.255Z,5.58
2019-03-18T20:20:12.690Z,5.56
2019-03-18T20:22:41.801Z,5.50
2019-03-18T20:25:11.152Z,5.44
2019-03-18T20:27:40.350Z,5.45
2019-03-18T20:30:12.334Z,5.43
2019-03-18T20:32:41.498Z,5.41
2019-03-18T20:35:11.483Z,5.35
2019-03-18T20:37:40.593Z,5.29
2019-03-18T20:40:10.871Z,5.30
2019-03-18T20:42:40.144Z,5.28
2019-03-18T20:45:11.347Z,5.17
2019-03-18T20:47:40.504Z,5.08
2019-03-18T20:50:11.526Z,4.87
2019-03-18T20:52:40.851Z,4.73
2019-03-18T20:55:10.820Z,4.67
2019-03-18T20:57:40.202Z,4.61
2019-03-18T21:00:10.610Z,4.55
2019-03-18T21:02:39.835Z,4.52
2019-03-18T21:05:09.504Z,4.49
2019-03-18T21:07:40.648Z,4.48
2019-03-18T21:10:11.097Z,4.38
2019-03-18T21:12:41.519Z,4.39
2019-03-18T21:15:10.961Z,4.34
2019-03-18T21:17:40.021Z,4.30
2019-03-18T21:20:11.545Z,4.22
2019-03-18T21:22:40.717Z,4.28
2019-03-18T21:25:09.803Z,4.27
2019-03-18T21:27:38.873Z,4.26
2019-03-18T21:30:08.807Z,4.27
2019-03-18T21:32:38.116Z,4.29
2019-03-18T21:35:07.495Z,4.29
2019-03-18T21:37:36.604Z,4.25
2019-03-18T21:40:06.905Z,4.21
2019-03-18T21:42:35.986Z,4.17
2019-03-18T21:45:05.541Z,4.10
2019-03-18T21:47:34.659Z,4.10
2019-03-18T21:50:03.883Z,3.98
2019-03-18T21:52:33.198Z,3.97
2019-03-18T21:55:02.296Z,3.93
2019-03-18T21:57:31.408Z,3.94
2019-03-18T22:00:00.665Z,3.97
2019-03-18T22:02:30.105Z,4.01
2019-03-18T22:04:59.191Z,4.10
2019-03-18T22:07:28.399Z,4.13
2019-03-18T22:09:57.468Z,4.26
2019-03-18T22:12:26.605Z,4.55
2019-03-18T22:14:56.031Z,4.55
2019-03-18T22:17:25.256Z,4.55
2019-03-18T22:19:54.470Z,4.61
2019-03-18T22:22:23.679Z,4.71
2019-03-18T22:24:52.744Z,4.63
2019-03-18T22:27:22.090Z,4.46
2019-03-18T22:29:51.164Z,4.44
2019-03-18T22:32:20.432Z,4.32
2019-03-18T22:34:49.574Z,4.22
2019-03-18T22:37:18.945Z,4.22
2019-03-18T22:39:47.994Z,4.17
2019-03-18T22:42:17.289Z,4.09
2019-03-18T22:44:46.590Z,4.11
2019-03-18T22:47:15.655Z,4.19
2019-03-18T22:49:45.270Z,4.08
2019-03-18T22:52:14.751Z,4.07
2019-03-18T22:54:43.964Z,3.98
2019-03-18T22:57:13.017Z,3.86
2019-03-18T22:59:42.492Z,3.86
2019-03-18T23:02:11.570Z,3.79
2019-03-18T23:04:40.680Z,3.75
2019-03-18T23:07:10.055Z,3.77
2019-03-18T23:09:39.171Z,3.80
2019-03-18T23:12:08.235Z,3.76
2019-03-18T23:14:37.332Z,3.81
2019-03-18T23:17:06.356Z,3.81
2019-03-18T23:19:35.686Z,3.98
2019-03-18T23:22:04.886Z,3.94
2019-03-18T23:24:34.234Z,3.94
2019-03-18T23:27:03.278Z,3.92
2019-03-18T23:29:33.394Z,3.86
2019-03-18T23:32:02.694Z,3.94
2019-03-18T23:34:31.975Z,3.95
2019-03-18T23:37:01.433Z,4.01
2019-03-18T23:39:30.499Z,3.90
2019-03-18T23:41:59.558Z,3.90
2019-03-18T23:44:28.740Z,3.85
2019-03-18T23:46:58.107Z,3.82
2019-03-18T23:49:27.227Z,3.89
2019-03-18T23:51:56.382Z,3.85
2019-03-18T23:54:25.742Z,3.86
2019-03-18T23:56:55.000Z,3.76
2019-03-18T23:59:24.054Z,3.82
